Time;durP1;ratioP1;P1;durP2;ratioP2;P2;SDS_P1;SDS_P2;PMS_P1;PMS_P2;Temp;Humidity;BMP_temperature;BMP_pressure;BME280_temperature;BME280_humidity;BME280_pressure;Samples;Min_cycle;Max_cycle;Signal;HPM_P1;HPM_P2
2021/11/22 00:01:52;;;;;;;;;7.25;5.75;;;;;7.62;73.62;100986.50;4999049;28;46189;-87
2021/11/22 00:04:17;;;;;;;;;6.50;6.00;;;;;7.61;73.67;100979.63;5002826;28;45638;-83
2021/11/22 00:06:43;;;;;;;;;6.25;5.00;;;;;7.53;73.80;100980.84;5004238;28;45573;-83
2021/11/22 00:09:08;;;;;;;;;5.25;5.25;;;;;7.52;73.88;100975.72;4985449;28;47475;-86
2021/11/22 00:11:35;;;;;;;;;5.75;5.75;;;;;7.55;73.82;100979.03;5001078;28;46096;-80
2021/11/22 00:14:01;;;;;;;;;7.25;5.50;;;;;7.59;73.95;100982.31;5001701;28;45608;-78
2021/11/22 00:19:48;;;;;;;;;7.75;5.50;;;;;7.37;73.92;100951.31;5000580;28;45934;-81
2021/11/22 00:22:13;;;;;;;;;5.75;4.75;;;;;7.57;73.97;100984.13;5001834;28;45702;-79
2021/11/22 00:24:39;;;;;;;;;8.50;6.25;;;;;7.46;73.83;100965.59;5005083;28;45573;-82
2021/11/22 00:27:05;;;;;;;;;6.00;6.00;;;;;7.53;73.80;100980.84;5002993;28;45576;-83
2021/11/22 00:29:31;;;;;;;;;8.50;6.75;;;;;7.53;73.68;100986.06;5004247;28;46587;-85
2021/11/22 00:35:18;;;;;;;;;7.75;6.50;;;;;7.35;73.93;100965.31;5006618;28;45576;-81
2021/11/22 00:37:49;;;;;;;;;6.50;6.25;;;;;7.48;73.83;100995.06;5001948;28;45763;-82
2021/11/22 00:40:15;;;;;;;;;7.50;6.75;;;;;7.48;74.02;100985.47;4997873;28;48937;-80
2021/11/22 00:42:44;;;;;;;;;10.00;6.50;;;;;7.46;73.91;100987.31;4999350;28;45963;-78
2021/11/22 00:45:11;;;;;;;;;9.75;6.00;;;;;7.43;73.94;100986.63;4996276;28;45575;-80
2021/11/22 00:47:37;;;;;;;;;5.50;4.00;;;;;7.31;73.88;100962.03;4978911;28;45793;-78
2021/11/22 00:50:07;;;;;;;;;4.50;2.50;;;;;7.44;73.96;100997.00;4993581;28;47539;-78
2021/11/22 00:52:32;;;;;;;;;10.00;6.25;;;;;7.43;73.79;100994.44;4995171;28;46292;-79
2021/11/22 00:54:58;;;;;;;;;2.00;2.00;;;;;7.29;73.86;100969.09;4994533;28;45580;-78
2021/11/22 00:57:23;;;;;;;;;6.00;5.00;;;;;7.47;73.82;101009.84;4994944;28;45775;-78
2021/11/22 00:59:48;;;;;;;;;6.00;5.00;;;;;7.46;73.67;101008.16;4995650;28;45688;-78
2021/11/22 01:05:35;;;;;;;;;7.75;6.50;;;;;7.41;73.56;101015.38;4994691;28;45700;-81
2021/11/22 01:08:03;;;;;;;;;6.50;6.50;;;;;7.07;73.66;100961.53;4995182;28;45712;-79
2021/11/22 01:10:29;;;;;;;;;8.00;6.25;;;;;7.36;73.72;101004.34;4995399;28;47286;-77
2021/11/22 01:12:54;;;;;;;;;6.00;5.00;;;;;7.30;73.64;101022.06;4994930;28;47024;-80
2021/11/22 01:15:22;;;;;;;;;6.00;5.50;;;;;7.38;73.62;101018.16;4995044;28;45620;-81
2021/11/22 01:17:50;;;;;;;;;8.50;6.00;;;;;7.39;73.61;101022.44;4994445;28;45734;-82
2021/11/22 01:20:18;;;;;;;;;9.50;6.50;;;;;7.40;73.62;101020.66;4997444;28;46491;-78
2021/11/22 01:22:44;;;;;;;;;7.25;6.00;;;;;7.40;73.59;101031.09;4997475;28;47304;-80
2021/11/22 01:25:12;;;;;;;;;5.25;5.00;;;;;7.32;73.74;101018.47;4998263;28;45644;-79
2021/11/22 01:27:37;;;;;;;;;7.25;5.25;;;;;7.24;73.67;101001.50;4998274;28;45563;-78
2021/11/22 01:36:30;;;;;;;;;8.50;7.50;;;;;7.42;73.17;101040.53;4996817;28;45642;-80
2021/11/22 01:38:55;;;;;;;;;7.00;6.00;;;;;7.33;73.23;101034.94;4997634;28;45660;-80
2021/11/22 01:41:21;;;;;;;;;6.75;6.00;;;;;7.30;73.46;101037.69;4997606;28;46474;-80
2021/11/22 01:43:46;;;;;;;;;8.00;6.00;;;;;7.36;73.29;101040.84;4997590;28;46383;-78
2021/11/22 01:46:19;;;;;;;;;6.00;6.00;;;;;7.36;73.18;101037.38;4997827;28;45656;-77
2021/11/22 01:48:47;;;;;;;;;7.00;6.00;;;;;7.36;73.05;101053.03;4997865;28;45677;-77
2021/11/22 01:51:14;;;;;;;;;7.50;5.75;;;;;7.31;73.19;101048.03;4999162;28;46649;-79
2021/11/22 01:53:40;;;;;;;;;8.50;6.00;;;;;7.31;73.09;101042.84;4999706;28;46627;-81
2021/11/22 01:56:05;;;;;;;;;5.75;5.75;;;;;7.25;73.12;101045.75;5003243;28;45572;-82
2021/11/22 01:58:33;;;;;;;;;9.00;6.75;;;;;7.25;73.38;101047.50;5003226;28;45491;-78
2021/11/22 02:00:59;;;;;;;;;6.75;6.00;;;;;7.27;73.08;101061.31;5002882;28;46545;-81
2021/11/22 02:03:25;;;;;;;;;6.00;5.00;;;;;7.26;73.18;101057.84;5000509;28;45601;-81
2021/11/22 02:05:51;;;;;;;;;4.50;4.25;;;;;7.25;73.03;101056.16;4998012;28;45769;-81
2021/11/22 02:08:19;;;;;;;;;7.50;5.75;;;;;7.09;72.95;101050.88;4998003;28;45496;-78
2021/11/22 02:10:44;;;;;;;;;6.75;5.00;;;;;7.18;72.91;101064.38;4997668;28;45721;-78
2021/11/22 02:13:10;;;;;;;;;5.25;4.00;;;;;7.20;73.26;101065.97;4997845;28;46085;-77
2021/11/22 02:15:36;;;;;;;;;6.00;6.00;;;;;7.14;72.98;101055.84;4997177;28;46155;-78
2021/11/22 02:18:02;;;;;;;;;6.50;4.75;;;;;7.21;72.91;101077.25;4996706;28;45591;-78
2021/11/22 02:20:29;;;;;;;;;6.00;5.00;;;;;7.18;72.92;101076.47;4978551;28;47698;-78
2021/11/22 02:23:04;;;;;;;;;5.50;4.00;;;;;7.12;73.00;101068.97;4996710;28;46002;-80
2021/11/22 02:25:31;;;;;;;;;9.00;4.50;;;;;7.14;72.76;101072.34;4997031;28;45783;-79
2021/11/22 02:27:58;;;;;;;;;9.25;6.00;;;;;7.00;72.70;101048.75;4997022;28;45531;-78
2021/11/22 02:30:29;;;;;;;;;9.00;6.00;;;;;7.17;72.86;101084.38;4996305;28;45596;-79
2021/11/22 02:36:16;;;;;;;;;6.00;5.75;;;;;7.12;72.58;101086.38;4997106;28;45937;-79
2021/11/22 02:38:42;;;;;;;;;4.75;2.75;;;;;7.03;72.75;101068.56;4997293;28;45587;-77
2021/11/22 02:41:08;;;;;;;;;5.25;4.00;;;;;7.09;72.79;101068.28;4996933;28;46341;-77
2021/11/22 02:43:38;;;;;;;;;6.50;5.00;;;;;6.96;72.65;101056.78;4998416;28;47434;-78
2021/11/22 02:46:04;;;;;;;;;7.50;6.00;;;;;7.12;72.64;101079.41;4998473;28;45664;-79
2021/11/22 02:48:30;;;;;;;;;8.00;6.00;;;;;7.11;72.52;101079.47;4998867;28;45893;-78
2021/11/22 02:50:56;;;;;;;;;4.75;4.25;;;;;7.01;72.54;101084.28;4998630;28;45451;-77
2021/11/22 02:53:24;;;;;;;;;4.75;2.75;;;;;6.86;72.54;101047.69;4998796;28;46349;-79
2021/11/22 02:55:50;;;;;;;;;6.75;5.00;;;;;6.95;72.77;101066.34;4998916;28;45799;-80
2021/11/22 02:58:16;;;;;;;;;8.75;6.00;;;;;6.98;72.63;101076.59;4999585;28;45735;-81
2021/11/22 03:00:41;;;;;;;;;5.75;5.75;;;;;6.88;72.73;101059.75;5000570;28;46240;-81
2021/11/22 03:06:28;;;;;;;;;4.25;4.25;;;;;6.99;72.84;101085.28;5000439;28;45989;-78
2021/11/22 03:08:54;;;;;;;;;7.75;6.00;;;;;6.94;72.85;101082.91;5001661;28;45958;-82
2021/11/22 03:11:20;;;;;;;;;6.00;5.75;;;;;6.96;72.62;101095.84;4998567;28;46336;-81
2021/11/22 03:13:47;;;;;;;;;7.50;5.50;;;;;6.92;72.78;101102.94;4997350;28;45741;-80
2021/11/22 03:16:14;;;;;;;;;7.25;6.25;;;;;6.89;72.45;101097.06;4997013;28;45595;-80
2021/11/22 03:18:40;;;;;;;;;5.25;5.00;;;;;6.87;72.76;101097.13;4997628;28;45524;-81
2021/11/22 03:21:06;;;;;;;;;7.00;4.75;;;;;6.85;73.01;101103.34;4998047;28;45525;-81
2021/11/22 03:23:33;;;;;;;;;7.75;5.75;;;;;6.86;72.91;101115.41;4997422;28;45734;-76
2021/11/22 03:25:59;;;;;;;;;9.50;7.50;;;;;6.78;73.24;101087.16;4996144;28;45784;-79
2021/11/22 03:28:26;;;;;;;;;9.25;7.00;;;;;6.82;72.96;101113.88;4996664;28;45596;-77
2021/11/22 03:30:52;;;;;;;;;8.00;5.50;;;;;6.81;72.91;101109.56;4999208;28;46187;-78
2021/11/22 03:36:41;;;;;;;;;4.75;3.00;;;;;6.71;73.24;101096.16;5002938;28;45644;-78
2021/11/22 03:39:26;;;;;;;;;5.50;5.50;;;;;6.52;73.23;101071.94;5000972;28;45572;-82
2021/11/22 03:41:55;;;;;;;;;8.00;5.00;;;;;6.79;72.96;101129.66;4999154;28;45611;-80
2021/11/22 03:44:21;;;;;;;;;4.75;3.50;;;;;6.71;73.19;101119.59;4998963;28;46959;-78
2021/11/22 03:46:49;;;;;;;;;8.00;5.75;;;;;6.75;73.24;101131.53;4982803;28;46156;-78
2021/11/22 03:49:17;;;;;;;;;7.50;5.00;;;;;6.74;72.97;101128.13;4983261;28;45701;-77
2021/11/22 03:51:43;;;;;;;;;9.25;8.00;;;;;6.72;73.10;101129.94;4998265;28;45517;-80
2021/11/22 03:54:11;;;;;;;;;9.50;7.50;;;;;6.67;72.93;101123.25;4997334;28;45999;-80
2021/11/22 03:56:38;;;;;;;;;8.50;5.50;;;;;6.74;73.02;101138.53;4996719;28;46031;-82
2021/11/22 03:59:04;;;;;;;;;7.25;4.75;;;;;6.39;73.40;101084.66;4996588;28;45704;-81
2021/11/22 04:01:30;;;;;;;;;8.50;5.50;;;;;6.71;73.06;101137.81;4996264;28;45642;-79
2021/11/22 04:03:55;;;;;;;;;9.75;8.25;;;;;6.56;73.21;101115.94;4996022;28;45627;-82
2021/11/22 04:06:21;;;;;;;;;8.00;6.00;;;;;6.74;73.37;101148.09;4997086;28;45631;-78
2021/11/22 04:08:46;;;;;;;;;8.00;6.00;;;;;6.72;73.30;101149.94;4999649;28;45721;-78
2021/11/22 04:11:12;;;;;;;;;7.00;6.00;;;;;6.78;72.92;101161.81;5002857;28;46590;-82
2021/11/22 04:13:38;;;;;;;;;6.75;6.75;;;;;6.80;73.04;101165.22;5003680;28;45642;-85
2021/11/22 04:16:04;;;;;;;;;8.50;6.50;;;;;6.78;72.93;101161.81;5003521;28;45600;-84
2021/11/22 04:21:52;;;;;;;;;9.25;8.00;;;;;6.75;73.07;101171.44;5004588;28;45544;-84
2021/11/22 04:24:17;;;;;;;;;6.00;5.00;;;;;6.76;73.03;101172.28;4999935;28;46192;-83
2021/11/22 04:26:42;;;;;;;;;9.75;8.25;;;;;6.76;72.86;101177.50;4999174;28;45793;-82
2021/11/22 04:29:08;;;;;;;;;8.75;7.00;;;;;6.72;73.00;101181.16;5000912;28;45622;-85
2021/11/22 04:31:33;;;;;;;;;9.25;6.50;;;;;6.77;72.85;101189.63;5002413;28;45601;-80
2021/11/22 04:33:59;;;;;;;;;10.50;8.50;;;;;6.74;72.61;101182.81;5001475;28;45628;-81
2021/11/22 04:36:25;;;;;;;;;9.00;8.00;;;;;6.64;73.07;101170.28;4999010;28;46062;-83
2021/11/22 04:38:50;;;;;;;;;9.00;7.25;;;;;6.78;72.62;101198.28;4997221;28;45853;-84
2021/11/22 04:41:16;;;;;;;;;11.00;9.75;;;;;6.70;73.06;101186.44;5002899;28;46524;-81
2021/11/22 04:43:41;;;;;;;;;9.50;8.50;;;;;6.75;72.83;101197.47;5010359;28;45957;-86
2021/11/22 04:46:07;;;;;;;;;8.25;8.25;;;;;6.57;72.82;101177.50;4997882;28;45685;-79
2021/11/22 04:51:54;;;;;;;;;16.25;11.25;;;;;6.68;73.12;101213.47;4994587;28;45615;-79
2021/11/22 04:54:19;;;;;;;;;10.00;9.00;;;;;6.67;73.27;101211.78;5001108;28;46072;-80
2021/11/22 04:56:45;;;;;;;;;9.25;9.25;;;;;6.62;73.22;101204.19;5005278;28;45470;-81
2021/11/22 04:59:10;;;;;;;;;5.50;5.50;;;;;6.59;73.19;101209.50;5004773;28;45996;-79
2021/11/22 05:01:35;;;;;;;;;12.50;9.25;;;;;6.65;73.29;101224.84;5002593;28;45659;-81
2021/11/22 05:07:23;;;;;;;;;9.25;9.00;;;;;6.62;73.47;101198.97;5003812;28;45596;-77
2021/11/22 05:09:48;;;;;;;;;12.25;10.00;;;;;6.67;73.15;101217.84;4990719;28;46016;-78
2021/11/22 05:12:15;;;;;;;;;13.00;10.00;;;;;6.66;73.18;101216.13;5009960;28;45509;-76
2021/11/22 05:14:41;;;;;;;;;10.00;9.75;;;;;6.69;73.08;101228.19;5008106;28;47096;-77
2021/11/22 05:17:06;;;;;;;;;10.00;8.00;;;;;6.68;73.13;101226.50;5015973;28;45659;-77
2021/11/22 05:19:32;;;;;;;;;11.00;9.75;;;;;6.66;73.46;101231.75;5017092;28;45631;-79
2021/11/22 05:21:59;;;;;;;;;10.75;9.00;;;;;6.68;73.12;101244.72;5002335;28;47519;-77
2021/11/22 05:24:25;;;;;;;;;9.75;9.25;;;;;6.58;73.41;101227.81;5021116;28;45488;-78
2021/11/22 05:26:50;;;;;;;;;9.50;9.00;;;;;6.63;73.33;101236.28;5017745;28;45658;-77
2021/11/22 05:29:16;;;;;;;;;11.25;10.00;;;;;6.66;73.50;101246.53;5021587;28;45548;-77
2021/11/22 05:31:42;;;;;;;;;14.00;10.00;;;;;6.63;73.54;101244.06;5019505;28;45701;-78
2021/11/22 05:37:31;;;;;;;;;9.75;8.75;;;;;6.63;73.36;101257.09;5014609;28;45159;-80
2021/11/22 05:39:57;;;;;;;;;9.75;9.75;;;;;6.55;73.60;101252.22;5007905;28;45674;-81
2021/11/22 05:42:23;;;;;;;;;12.00;12.00;;;;;6.61;73.22;101258.91;5001903;28;45502;-80
2021/11/22 05:44:48;;;;;;;;;11.50;8.50;;;;;6.60;73.48;101262.41;5005283;28;45569;-80
2021/11/22 05:47:14;;;;;;;;;13.50;12.50;;;;;6.54;73.47;101255.72;5004017;28;45429;-76
2021/11/22 05:49:41;;;;;;;;;13.25;10.50;;;;;6.54;73.66;101249.66;5004596;28;45639;-80
2021/11/22 05:52:08;;;;;;;;;13.00;9.75;;;;;6.57;73.13;101260.81;5005047;28;47445;-79
2021/11/22 05:54:37;;;;;;;;;8.50;8.50;;;;;6.58;73.37;101266.88;5002482;28;46138;-78
2021/11/22 05:57:03;;;;;;;;;12.75;12.00;;;;;6.59;73.33;101261.56;5002045;28;45805;-79
2021/11/22 05:59:29;;;;;;;;;11.50;11.00;;;;;6.59;73.39;101268.53;5007673;28;45612;-78
2021/11/22 06:01:54;;;;;;;;;13.75;13.00;;;;;6.60;73.53;101275.44;5011360;28;45619;-82
2021/11/22 06:07:42;;;;;;;;;18.00;15.50;;;;;6.62;73.35;101284.03;5005937;28;45961;-81
2021/11/22 06:10:07;;;;;;;;;15.75;14.25;;;;;6.59;73.72;101287.59;4990029;28;45482;-83
2021/11/22 06:12:37;;;;;;;;;20.75;19.75;;;;;6.21;73.70;101226.81;4987360;28;46606;-79
2021/11/22 06:15:03;;;;;;;;;21.50;15.50;;;;;6.45;73.35;101281.31;4986195;28;46069;-80
2021/11/22 06:17:28;;;;;;;;;24.00;18.00;;;;;6.54;73.67;101301.72;5004345;28;45698;-78
2021/11/22 06:19:54;;;;;;;;;20.50;18.00;;;;;6.48;73.52;101289.00;5003992;28;45933;-78
2021/11/22 06:22:21;;;;;;;;;20.75;18.00;;;;;6.47;73.70;101297.72;5001341;28;45276;-80
2021/11/22 06:24:48;;;;;;;;;11.75;11.50;;;;;6.52;73.92;101303.56;5002016;28;46015;-80
2021/11/22 06:27:14;;;;;;;;;20.75;18.00;;;;;6.54;73.86;101309.53;5000099;28;45478;-80
2021/11/22 06:29:40;;;;;;;;;22.25;19.00;;;;;6.37;73.58;101305.06;5000723;28;45607;-80
2021/11/22 06:32:10;;;;;;;;;19.75;18.25;;;;;6.42;73.64;101326.56;5001776;28;45613;-84
2021/11/22 06:37:58;;;;;;;;;18.00;16.00;;;;;6.41;73.76;101337.88;4998674;28;45900;-79
2021/11/22 06:40:23;;;;;;;;;19.50;18.25;;;;;6.38;73.83;101319.75;4998660;28;45597;-78
2021/11/22 06:42:54;;;;;;;;;16.50;13.50;;;;;6.49;74.19;101345.31;5000712;28;46344;-76
2021/11/22 06:45:20;;;;;;;;;18.50;17.00;;;;;6.39;73.99;101329.25;5002214;28;45677;-80
2021/11/22 06:47:46;;;;;;;;;22.50;20.00;;;;;6.15;73.87;101297.34;4984421;28;45541;-80
2021/11/22 06:50:12;;;;;;;;;24.25;20.25;;;;;6.26;74.01;101328.91;4999039;28;45948;-81
2021/11/22 06:52:38;;;;;;;;;23.75;20.25;;;;;6.50;73.85;101360.03;4999565;28;47337;-78
2021/11/22 06:55:05;;;;;;;;;17.00;16.00;;;;;6.52;73.83;101384.25;5001357;28;46146;-84
2021/11/22 06:57:31;;;;;;;;;22.50;21.00;;;;;6.53;73.99;101373.75;5001929;28;45563;-76
2021/11/22 06:59:57;;;;;;;;;20.25;19.25;;;;;6.57;74.05;101379.72;5001090;28;45592;-79
2021/11/22 07:02:24;;;;;;;;;19.75;18.25;;;;;6.64;73.96;101381.16;5001691;28;46284;-78
2021/11/22 07:08:11;;;;;;;;;17.50;15.50;;;;;6.67;73.66;101376.66;4993114;28;45877;-77
2021/11/22 07:10:36;;;;;;;;;20.25;18.00;;;;;6.76;73.55;101383.22;4995121;28;45818;-76
2021/11/22 07:13:02;;;;;;;;;19.50;17.25;;;;;6.81;73.11;101381.25;4994543;28;46469;-76
2021/11/22 07:15:34;;;;;;;;;21.00;16.50;;;;;6.85;73.30;101379.38;4995678;28;46279;-77
2021/11/22 07:18:00;;;;;;;;;18.50;16.00;;;;;6.82;73.21;101374.28;4994729;28;45641;-79
2021/11/22 07:20:26;;;;;;;;;17.75;14.75;;;;;6.86;73.10;101383.66;4995473;28;45603;-77
2021/11/22 07:22:51;;;;;;;;;22.25;18.50;;;;;6.80;72.97;101374.38;4994427;28;47910;-78
2021/11/22 07:25:17;;;;;;;;;13.75;13.25;;;;;6.90;73.12;101390.44;4994644;28;46039;-78
2021/11/22 07:27:43;;;;;;;;;20.00;17.00;;;;;6.90;73.07;101388.69;4994656;28;46103;-77
2021/11/22 07:30:09;;;;;;;;;17.00;13.00;;;;;6.83;72.88;101375.97;4994876;28;45704;-77
2021/11/22 07:32:35;;;;;;;;;14.75;14.00;;;;;6.92;72.92;101392.06;4994373;28;47068;-76
2021/11/22 07:38:21;;;;;;;;;11.00;11.00;;;;;7.05;72.94;101431.44;4994462;28;46037;-75
2021/11/22 07:40:47;;;;;;;;;14.00;13.00;;;;;7.04;72.81;101414.13;4994569;28;45702;-78
2021/11/22 07:43:15;;;;;;;;;13.75;11.25;;;;;7.05;72.53;101421.88;4993141;28;46506;-77
2021/11/22 07:45:42;;;;;;;;;13.75;12.75;;;;;7.14;72.54;101433.66;4994140;28;46454;-77
2021/11/22 07:48:08;;;;;;;;;13.50;12.50;;;;;7.06;72.32;101428.78;4994252;28;45586;-76
2021/11/22 07:50:33;;;;;;;;;14.50;13.00;;;;;7.19;72.23;101449.94;4994784;28;45532;-77
2021/11/22 07:52:59;;;;;;;;;18.75;12.75;;;;;7.21;72.06;101452.47;4994079;28;47238;-77
2021/11/22 07:55:25;;;;;;;;;13.25;11.75;;;;;7.21;72.31;101450.72;4993937;28;46159;-76
2021/11/22 07:57:53;;;;;;;;;17.50;14.25;;;;;7.28;71.87;101459.97;4976714;28;45549;-76
2021/11/22 08:00:21;;;;;;;;;12.75;11.50;;;;;7.27;72.00;101453.06;4994447;28;45530;-77
2021/11/22 08:02:46;;;;;;;;;10.50;10.25;;;;;7.27;71.62;101454.81;4994361;28;47342;-76
2021/11/22 08:08:37;;;;;;;;;13.00;11.50;;;;;7.31;70.98;101445.94;4993699;28;45844;-76
2021/11/22 08:13:32;;;;;;;;;11.50;9.75;;;;;7.32;70.84;101479.78;4996909;28;45567;-77
2021/11/22 08:16:01;;;;;;;;;17.00;11.50;;;;;7.37;70.94;101469.13;4997989;28;46694;-78
2021/11/22 08:18:26;;;;;;;;;11.25;9.50;;;;;7.38;70.82;101474.28;4998576;28;45875;-78
2021/11/22 08:20:52;;;;;;;;;11.00;10.25;;;;;7.40;70.88;101482.88;4996142;28;45812;-78
2021/11/22 08:23:18;;;;;;;;;14.25;10.50;;;;;7.41;70.88;101470.69;4994294;28;45602;-76
2021/11/22 08:25:44;;;;;;;;;12.50;12.00;;;;;7.43;70.79;101479.28;4976088;28;48025;-78
2021/11/22 08:28:09;;;;;;;;;12.50;10.50;;;;;7.40;70.61;101463.78;4994927;28;45761;-78
2021/11/22 08:30:36;;;;;;;;;15.00;10.25;;;;;7.42;70.36;101477.59;4979687;28;45613;-78
2021/11/22 08:33:02;;;;;;;;;13.50;10.50;;;;;7.46;70.27;101474.78;4997086;28;46477;-78
2021/11/22 08:38:49;;;;;;;;;9.00;8.50;;;;;7.42;70.38;101472.38;4996901;28;45647;-78
2021/11/22 08:41:15;;;;;;;;;12.00;9.75;;;;;7.49;69.86;101476.44;4997318;28;45736;-79
2021/11/22 08:43:40;;;;;;;;;11.75;10.75;;;;;7.53;70.02;101491.84;4997403;28;46484;-77
2021/11/22 08:46:05;;;;;;;;;9.75;9.25;;;;;7.43;69.98;101480.16;4997144;28;46189;-80
2021/11/22 08:48:31;;;;;;;;;10.00;9.50;;;;;7.56;70.06;101499.53;4997093;28;45673;-78
2021/11/22 08:50:56;;;;;;;;;10.50;9.00;;;;;7.55;69.79;101507.44;4998122;28;45792;-77
2021/11/22 08:53:22;;;;;;;;;9.75;9.00;;;;;7.52;69.90;101492.75;4996904;28;45791;-78
2021/11/22 08:55:48;;;;;;;;;11.50;9.75;;;;;7.54;69.70;101500.53;4997082;28;45633;-77
2021/11/22 08:58:13;;;;;;;;;7.50;6.25;;;;;7.42;69.54;101490.63;4995932;28;45591;-80
2021/11/22 09:00:40;;;;;;;;;10.00;8.75;;;;;7.53;69.75;101509.25;4979310;28;45836;-78
2021/11/22 09:03:06;;;;;;;;;9.75;8.75;;;;;7.54;69.64;101506.59;4996557;28;47261;-79
2021/11/22 09:08:53;;;;;;;;;10.00;8.25;;;;;7.54;69.21;101522.25;4995483;28;45874;-77
2021/11/22 09:11:19;;;;;;;;;9.25;8.50;;;;;7.57;69.01;101532.53;4996563;28;45594;-78
2021/11/22 09:13:45;;;;;;;;;6.50;6.50;;;;;7.55;68.64;101515.25;4996513;28;46438;-78
2021/11/22 09:16:11;;;;;;;;;8.75;8.75;;;;;7.54;69.27;101522.25;4996273;28;46337;-78
2021/11/22 09:18:37;;;;;;;;;11.75;9.25;;;;;7.59;69.12;101528.09;4996635;28;45551;-76
2021/11/22 09:24:24;;;;;;;;;7.00;6.75;;;;;7.66;69.25;101533.03;4996167;28;45612;-75
2021/11/22 09:26:49;;;;;;;;;6.75;5.50;;;;;7.70;68.37;101532.84;4996323;28;45551;-77
2021/11/22 09:29:15;;;;;;;;;10.00;8.50;;;;;7.71;68.11;101544.97;4996491;28;45675;-76
2021/11/22 09:31:40;;;;;;;;;8.25;6.75;;;;;7.69;68.12;101552.00;4996668;28;45601;-76
2021/11/22 09:34:06;;;;;;;;;12.00;10.00;;;;;7.72;68.17;101545.81;4996352;28;46317;-77
2021/11/22 09:36:31;;;;;;;;;6.25;6.00;;;;;7.72;68.17;101546.63;4996275;28;45628;-76
2021/11/22 09:38:57;;;;;;;;;10.00;6.75;;;;;7.73;68.29;101550.94;4996563;28;45682;-76
2021/11/22 09:41:27;;;;;;;;;9.50;8.00;;;;;7.75;68.26;101554.34;4996078;28;45600;-76
2021/11/22 09:43:53;;;;;;;;;10.50;9.50;;;;;7.77;67.95;101567.31;4997242;28;46829;-76
2021/11/22 09:46:18;;;;;;;;;6.50;5.00;;;;;7.69;68.18;101561.59;4996549;28;46223;-77
2021/11/22 09:48:44;;;;;;;;;10.00;7.00;;;;;7.80;67.93;101569.78;4996479;28;45604;-76
2021/11/22 09:54:31;;;;;;;;;7.25;6.00;;;;;7.73;67.36;101570.97;4995898;28;45560;-76
2021/11/22 09:56:57;;;;;;;;;8.00;7.00;;;;;7.72;67.57;101558.88;4995550;28;45733;-77
2021/11/22 09:59:22;;;;;;;;;9.50;8.50;;;;;7.81;67.56;101581.91;4996252;28;45602;-77
2021/11/22 10:01:57;;;;;;;;;7.00;6.75;;;;;7.85;67.65;101580.88;4995974;28;45902;-77
2021/11/22 10:04:29;;;;;;;;;9.75;9.00;;;;;7.91;67.12;101594.50;4995970;28;45877;-76
2021/11/22 10:06:57;;;;;;;;;7.00;6.00;;;;;7.91;67.19;101581.44;4977519;28;46282;-76
2021/11/22 10:09:32;;;;;;;;;6.75;6.75;;;;;7.94;67.03;101586.50;4995461;28;46454;-76
2021/11/22 10:12:01;;;;;;;;;5.75;5.25;;;;;7.94;66.98;101588.28;4995230;28;46034;-77
2021/11/22 10:14:29;;;;;;;;;4.25;3.00;;;;;7.97;66.52;101583.78;4995188;28;47394;-77
2021/11/22 10:16:55;;;;;;;;;7.00;6.00;;;;;7.98;66.55;101603.75;4994749;28;46450;-77
2021/11/22 10:19:21;;;;;;;;;8.50;6.00;;;;;7.98;66.42;101592.47;4995527;28;45733;-76
2021/11/22 10:21:48;;;;;;;;;9.75;6.75;;;;;7.91;66.34;101584.06;4995959;28;45773;-77
2021/11/22 10:24:15;;;;;;;;;6.00;3.50;;;;;8.05;66.31;101593.88;4995516;28;45568;-76
2021/11/22 10:26:43;;;;;;;;;6.00;5.00;;;;;8.06;65.57;101603.38;4993801;28;46247;-78
2021/11/22 10:29:10;;;;;;;;;7.50;5.50;;;;;8.06;65.57;101606.00;4994314;28;45825;-77
2021/11/22 10:31:38;;;;;;;;;6.00;6.00;;;;;8.06;65.84;101613.84;4993879;28;45935;-76
2021/11/22 10:34:04;;;;;;;;;9.00;5.75;;;;;8.11;65.65;101598.81;4994186;28;47504;-77
2021/11/22 10:36:36;;;;;;;;;8.50;6.00;;;;;8.17;65.55;101611.59;4993508;28;46527;-78
2021/11/22 10:39:04;;;;;;;;;5.50;5.00;;;;;8.20;65.57;101606.25;4994371;28;45920;-77
2021/11/22 10:41:33;;;;;;;;;7.75;6.75;;;;;8.29;65.24;101610.19;4994701;28;45884;-78
2021/11/22 10:44:19;;;;;;;;;10.00;6.00;;;;;8.33;65.03;101617.00;4994229;28;46610;-77
2021/11/22 10:46:49;;;;;;;;;6.50;6.00;;;;;8.33;64.72;101617.00;4993124;28;47640;-77
2021/11/22 10:52:34;;;;;;;;;6.00;6.00;;;;;8.48;64.60;101615.44;4993077;28;45684;-79
2021/11/22 10:55:09;;;;;;;;;7.50;7.50;;;;;8.51;64.58;101620.53;4993930;28;46257;-77
2021/11/22 10:57:40;;;;;;;;;10.00;6.00;;;;;8.57;64.64;101615.88;4993949;28;46157;-74
2021/11/22 11:00:20;;;;;;;;;8.75;7.50;;;;;8.68;64.25;101623.22;4994049;28;45933;-75
2021/11/22 11:02:46;;;;;;;;;7.00;6.50;;;;;8.69;63.75;101622.31;4994545;28;45703;-76
2021/11/22 11:05:26;;;;;;;;;8.25;7.00;;;;;8.73;63.97;101616.84;4993971;28;46721;-75
2021/11/22 11:08:02;;;;;;;;;8.00;7.00;;;;;8.72;63.65;101625.59;4993819;28;46346;-74
2021/11/22 11:10:32;;;;;;;;;7.25;6.00;;;;;8.74;63.28;101612.47;4993617;28;45669;-77
2021/11/22 11:12:59;;;;;;;;;6.75;6.75;;;;;8.76;63.42;101626.28;4993875;28;46144;-76
2021/11/22 11:15:26;;;;;;;;;8.50;6.50;;;;;8.75;63.09;101625.44;4993563;28;46597;-77
2021/11/22 11:17:52;;;;;;;;;5.00;5.00;;;;;8.69;63.14;101610.06;4995736;28;45650;-76
2021/11/22 11:20:20;;;;;;;;;6.00;5.50;;;;;8.81;62.93;101617.31;4997336;28;45642;-75
2021/11/22 11:22:49;;;;;;;;;5.50;5.50;;;;;8.81;62.24;101617.31;4997673;28;45630;-76
2021/11/22 11:25:16;;;;;;;;;10.75;7.00;;;;;8.80;62.51;101636.53;4995459;28;45908;-77
2021/11/22 11:27:45;;;;;;;;;6.75;5.50;;;;;8.82;61.94;101616.41;4993586;28;47189;-77
2021/11/22 11:30:19;;;;;;;;;7.00;6.00;;;;;8.82;62.80;101620.78;4992577;28;45890;-78
2021/11/22 11:32:45;;;;;;;;;7.75;6.25;;;;;8.84;62.59;101632.88;4993519;28;45588;-77
2021/11/22 11:35:17;;;;;;;;;9.25;6.75;;;;;8.87;62.59;101624.03;4993132;28;47368;-77
2021/11/22 11:37:59;;;;;;;;;8.50;7.00;;;;;8.88;61.85;101620.50;4993230;28;46216;-76
2021/11/22 11:40:44;;;;;;;;;6.00;6.00;;;;;8.83;61.54;101630.31;4993475;28;45573;-76
2021/11/22 11:43:40;;;;;;;;;7.00;6.75;;;;;8.77;61.81;101633.22;4993600;28;45843;-77
2021/11/22 11:46:32;;;;;;;;;3.00;2.50;;;;;8.73;61.88;101635.13;4993094;28;46645;-75
2021/11/22 11:48:58;;;;;;;;;11.00;8.50;;;;;8.71;62.38;101621.28;4993120;28;46083;-75
2021/11/22 11:51:40;;;;;;;;;7.50;7.50;;;;;8.66;62.61;101601.53;4992801;28;45680;-75
2021/11/22 11:54:14;;;;;;;;;7.00;6.00;;;;;8.76;62.32;101616.69;4992935;28;45597;-77
2021/11/22 11:56:47;;;;;;;;;8.25;5.50;;;;;8.77;61.83;101615.78;4992376;28;47604;-77
2021/11/22 11:59:36;;;;;;;;;7.25;6.50;;;;;8.72;61.32;101624.75;4993162;28;46108;-78
2021/11/22 12:02:08;;;;;;;;;9.50;8.25;;;;;8.69;61.53;101617.06;4992576;28;45552;-78
2021/11/22 12:07:55;;;;;;;;;10.25;9.75;;;;;8.73;62.07;101611.63;4992358;28;46053;-76
2021/11/22 12:10:25;;;;;;;;;10.00;7.25;;;;;8.78;61.82;101624.47;4993048;28;46094;-77
2021/11/22 12:12:57;;;;;;;;;10.75;9.25;;;;;8.78;61.47;101620.09;4993122;28;45669;-77
2021/11/22 12:15:28;;;;;;;;;10.00;7.00;;;;;8.77;61.62;101622.78;4992492;28;45761;-78
2021/11/22 12:17:57;;;;;;;;;10.00;7.50;;;;;8.69;61.26;101617.91;4992008;28;45953;-77
2021/11/22 12:23:53;;;;;;;;;10.00;7.50;;;;;8.82;61.46;101612.94;4990389;28;45808;-77
2021/11/22 12:26:36;;;;;;;;;9.00;8.50;;;;;8.92;61.38;101626.41;4992115;28;45890;-78
2021/11/22 12:29:04;;;;;;;;;10.00;7.50;;;;;8.96;61.02;101620.16;4992637;28;46611;-76
2021/11/22 12:31:34;;;;;;;;;6.50;5.75;;;;;9.03;61.16;101626.75;4992334;28;46275;-77
2021/11/22 12:34:06;;;;;;;;;8.00;7.00;;;;;9.05;61.19;101614.47;4992503;28;45643;-78
2021/11/22 12:40:06;;;;;;;;;11.00;9.00;;;;;9.27;61.31;101630.78;4992358;28;45683;-79
2021/11/22 12:42:45;;;;;;;;;11.50;9.75;;;;;9.38;61.11;101625.03;4992525;28;46052;-77
2021/11/22 12:45:10;;;;;;;;;11.25;10.75;;;;;9.42;60.79;101635.25;4992384;28;45913;-78
2021/11/22 12:47:35;;;;;;;;;12.00;7.25;;;;;9.45;60.64;101632.47;4975039;28;45557;-78
2021/11/22 12:50:10;;;;;;;;;7.00;6.00;;;;;9.50;60.36;101625.25;4992120;28;47834;-78
2021/11/22 12:52:36;;;;;;;;;9.25;7.25;;;;;9.54;60.45;101628.56;4992268;28;47433;-77
2021/11/22 12:55:04;;;;;;;;;8.75;7.75;;;;;9.59;60.71;101634.41;4992186;28;45856;-76
2021/11/22 12:57:35;;;;;;;;;14.75;10.75;;;;;9.59;60.38;101616.09;4991984;28;45949;-76